Wright, Mississippi
Current Conditions -  °F | °C
As of 2:15 AM on Friday 31 Oct 2014 (Local Time) from KRNV Reporting Station
Scattered Clouds Scattered Clouds  
Wind Chill: 54°   Ceiling: Unl
Heat Index: 54°   Visibility: 10mi
Dew Point: 51°   Wind: 0mph
Humidity: 88%   Direction: NA
Pressure: 30.01"   Gusts: NA
Location:  33.8277°N, 90.9559°W
Report Text: KRNV 310715Z AUTO 00000KT 10SM SCT070 12/10 A3001 RMK AO2 T01230104
Loading
Personal Weather Stations






























Interactive Weather Map
Tropical Storm Tracking
New forecast layout! Learn more

10-Day Weather Forecast

Advertisements
Track Severe Weather on mobile